createdAt,value
2018-12-31T00:00:42.717Z,0
2018-12-31T00:01:52.661Z,0
2018-12-31T00:03:02.348Z,0
2018-12-31T00:04:12.313Z,0
2018-12-31T00:05:22.277Z,0
2018-12-31T00:06:32.243Z,0
2018-12-31T00:07:42.180Z,0
2018-12-31T00:08:52.129Z,0
2018-12-31T00:10:02.088Z,0
2018-12-31T00:11:12.018Z,0
2018-12-31T00:12:21.983Z,0
2018-12-31T00:13:31.932Z,0
2018-12-31T00:14:41.885Z,0
2018-12-31T00:15:51.607Z,0
2018-12-31T00:17:01.318Z,0
2018-12-31T00:18:11.261Z,0
2018-12-31T00:19:21.212Z,0
2018-12-31T00:20:31.179Z,0
2018-12-31T00:21:41.139Z,0
2018-12-31T00:22:51.093Z,0
2018-12-31T00:24:00.781Z,0
2018-12-31T00:25:10.723Z,0
2018-12-31T00:26:20.673Z,0
2018-12-31T00:27:30.614Z,0
2018-12-31T00:28:40.323Z,0
2018-12-31T00:29:50.272Z,0
2018-12-31T00:30:59.976Z,0
2018-12-31T00:32:09.730Z,0
2018-12-31T00:33:19.679Z,0
2018-12-31T00:34:29.383Z,0
2018-12-31T00:35:38.843Z,0
2018-12-31T00:36:48.798Z,0
2018-12-31T00:37:58.487Z,0
2018-12-31T00:39:08.163Z,0
2018-12-31T00:40:17.847Z,0
2018-12-31T00:41:27.302Z,0
2018-12-31T00:42:37.254Z,0
2018-12-31T00:43:46.982Z,0
2018-12-31T00:44:56.956Z,0
2018-12-31T00:46:06.895Z,0
2018-12-31T00:47:16.849Z,0
2018-12-31T00:48:26.894Z,0
2018-12-31T00:49:36.845Z,0
2018-12-31T00:50:46.803Z,0
2018-12-31T00:51:56.756Z,0
2018-12-31T00:53:06.677Z,0
2018-12-31T00:54:16.627Z,0
2018-12-31T00:55:26.323Z,0
2018-12-31T00:56:36.107Z,0
2018-12-31T00:57:46.076Z,0
2018-12-31T00:58:55.776Z,0
2018-12-31T01:00:05.472Z,0
2018-12-31T01:01:15.408Z,0
2018-12-31T01:02:25.807Z,0
2018-12-31T01:03:35.834Z,0
2018-12-31T01:04:45.522Z,0
2018-12-31T01:05:55.227Z,0
2018-12-31T01:07:05.172Z,0
2018-12-31T01:08:15.188Z,0
2018-12-31T01:09:25.124Z,0
2018-12-31T01:10:34.813Z,0
2018-12-31T01:11:44.751Z,0
2018-12-31T01:12:53.708Z,0
2018-12-31T01:14:03.416Z,0
2018-12-31T01:15:13.355Z,0
2018-12-31T01:16:23.305Z,0
2018-12-31T01:17:33.250Z,0
2018-12-31T01:18:42.986Z,0
2018-12-31T01:19:52.674Z,0
2018-12-31T01:21:02.626Z,0
2018-12-31T01:22:12.330Z,0
2018-12-31T01:23:22.265Z,0
2018-12-31T01:24:32.201Z,0
2018-12-31T01:25:43.183Z,0
2018-12-31T01:26:53.289Z,0
2018-12-31T01:28:02.978Z,0
2018-12-31T01:29:12.938Z,0
2018-12-31T01:30:22.894Z,0
2018-12-31T01:31:32.578Z,0
2018-12-31T01:32:42.260Z,0
2018-12-31T01:33:52.627Z,0
2018-12-31T01:35:02.144Z,0
2018-12-31T01:36:12.094Z,0
2018-12-31T01:37:22.041Z,0
2018-12-31T01:38:31.970Z,0
2018-12-31T01:39:41.426Z,0
2018-12-31T01:40:51.368Z,0
2018-12-31T01:42:01.310Z,0
2018-12-31T01:43:11.275Z,0
2018-12-31T01:44:20.975Z,0
2018-12-31T01:45:30.944Z,0
2018-12-31T01:46:40.644Z,0
2018-12-31T01:47:50.330Z,0
2018-12-31T01:49:00.018Z,0
2018-12-31T01:50:09.957Z,0
2018-12-31T01:51:21.088Z,0
2018-12-31T01:52:31.235Z,0
2018-12-31T01:53:41.199Z,0
2018-12-31T01:54:50.981Z,0
2018-12-31T01:56:00.939Z,0
2018-12-31T01:57:10.869Z,0
2018-12-31T01:58:20.615Z,0
2018-12-31T01:59:30.555Z,0
2018-12-31T02:00:41.349Z,0
2018-12-31T02:01:51.052Z,0
2018-12-31T02:03:01.001Z,0
2018-12-31T02:04:10.683Z,0
2018-12-31T02:05:19.884Z,0
2018-12-31T02:06:29.583Z,0
2018-12-31T02:07:39.261Z,0
2018-12-31T02:08:49.030Z,0
2018-12-31T02:09:58.715Z,0
2018-12-31T02:11:08.650Z,0
2018-12-31T02:12:18.078Z,0
2018-12-31T02:13:28.025Z,0
2018-12-31T02:14:37.963Z,0
2018-12-31T02:15:47.654Z,0
2018-12-31T02:16:57.586Z,0
2018-12-31T02:18:07.599Z,0
2018-12-31T02:19:17.527Z,0
2018-12-31T02:20:27.529Z,0
2018-12-31T02:21:37.273Z,0
2018-12-31T02:22:47.212Z,0
2018-12-31T02:23:57.158Z,0
2018-12-31T02:25:06.854Z,0
2018-12-31T02:26:18.495Z,0
2018-12-31T02:27:28.197Z,0
2018-12-31T02:28:37.910Z,0
2018-12-31T02:29:47.631Z,0
2018-12-31T02:30:57.581Z,0
2018-12-31T02:32:07.535Z,0
2018-12-31T02:33:17.244Z,0
2018-12-31T02:34:26.953Z,0
2018-12-31T02:35:36.640Z,0
2018-12-31T02:36:46.354Z,0
2018-12-31T02:37:56.042Z,0
2018-12-31T02:39:06.000Z,0
2018-12-31T02:40:15.717Z,0
2018-12-31T02:41:25.677Z,0
2018-12-31T02:42:35.422Z,0
2018-12-31T02:43:45.137Z,0
2018-12-31T02:44:54.827Z,0
2018-12-31T02:46:04.523Z,0
2018-12-31T02:47:15.150Z,0
2018-12-31T02:48:24.947Z,0
2018-12-31T02:49:34.914Z,0
2018-12-31T02:50:44.883Z,0
2018-12-31T02:51:54.598Z,0
2018-12-31T02:53:04.564Z,0
2018-12-31T02:54:14.271Z,0
2018-12-31T02:55:23.719Z,0
2018-12-31T02:56:33.393Z,0
2018-12-31T02:57:43.331Z,0
2018-12-31T02:58:53.021Z,0
2018-12-31T03:00:03.979Z,0
2018-12-31T03:01:13.946Z,0
2018-12-31T03:02:23.643Z,0
2018-12-31T03:03:33.106Z,0
2018-12-31T03:04:43.161Z,0
2018-12-31T03:05:53.180Z,0
2018-12-31T03:07:02.887Z,0
2018-12-31T03:08:12.835Z,0
2018-12-31T03:09:22.793Z,0
2018-12-31T03:10:32.491Z,0
2018-12-31T03:11:42.179Z,0
2018-12-31T03:12:51.883Z,0
2018-12-31T03:14:01.341Z,0
2018-12-31T03:15:11.325Z,0
2018-12-31T03:16:21.025Z,0
2018-12-31T03:17:30.721Z,0
2018-12-31T03:18:40.658Z,0
2018-12-31T03:19:50.349Z,0
2018-12-31T03:21:00.068Z,0
2018-12-31T03:22:10.038Z,0
2018-12-31T03:23:19.724Z,0
2018-12-31T03:24:29.434Z,0
2018-12-31T03:25:39.149Z,0
2018-12-31T03:26:49.178Z,0
2018-12-31T03:27:59.126Z,0
2018-12-31T03:29:09.080Z,0
2018-12-31T03:30:19.034Z,0
2018-12-31T03:31:29.011Z,0
2018-12-31T03:32:38.759Z,0
2018-12-31T03:33:48.468Z,0
2018-12-31T03:34:58.430Z,0
2018-12-31T03:36:08.389Z,0
2018-12-31T03:37:18.334Z,0
2018-12-31T03:38:28.025Z,0
2018-12-31T03:39:37.475Z,0
2018-12-31T03:40:47.159Z,0
2018-12-31T03:41:57.101Z,0
2018-12-31T03:43:07.038Z,0
2018-12-31T03:44:16.995Z,0
2018-12-31T03:45:26.944Z,0
2018-12-31T03:46:36.887Z,0
2018-12-31T03:47:46.828Z,0
2018-12-31T03:48:56.775Z,0
2018-12-31T03:50:06.799Z,0
2018-12-31T03:51:16.738Z,0
2018-12-31T03:52:26.681Z,0
2018-12-31T03:53:36.626Z,0
2018-12-31T03:54:46.583Z,0
2018-12-31T03:55:56.281Z,0
2018-12-31T03:57:06.226Z,0
2018-12-31T03:58:15.927Z,0
2018-12-31T03:59:25.870Z,0
2018-12-31T04:00:35.804Z,0
2018-12-31T04:01:45.848Z,0
2018-12-31T04:02:56.421Z,0
2018-12-31T04:04:06.112Z,0
2018-12-31T04:05:15.800Z,0
2018-12-31T04:06:25.489Z,0
2018-12-31T04:07:35.420Z,0
2018-12-31T04:08:45.352Z,0
2018-12-31T04:09:55.047Z,0
2018-12-31T04:11:04.729Z,0
2018-12-31T04:12:14.423Z,0
2018-12-31T04:13:24.152Z,0
2018-12-31T04:14:34.098Z,0
2018-12-31T04:15:44.055Z,0
2018-12-31T04:16:53.756Z,0
2018-12-31T04:18:03.711Z,0
2018-12-31T04:19:13.639Z,0
2018-12-31T04:20:23.375Z,0
2018-12-31T04:21:33.315Z,0
2018-12-31T04:22:43.303Z,0
2018-12-31T04:23:53.483Z,0
2018-12-31T04:25:03.441Z,0
2018-12-31T04:26:13.447Z,0
2018-12-31T04:27:23.399Z,0
2018-12-31T04:28:33.352Z,0
2018-12-31T04:29:43.110Z,0
2018-12-31T04:30:52.798Z,0
2018-12-31T04:32:02.485Z,0
2018-12-31T04:33:12.457Z,0
2018-12-31T04:34:22.391Z,0
2018-12-31T04:35:32.327Z,0
2018-12-31T04:36:42.283Z,0
2018-12-31T04:37:52.245Z,0
2018-12-31T04:39:01.679Z,0
2018-12-31T04:40:11.623Z,0
2018-12-31T04:41:21.659Z,0
2018-12-31T04:42:31.360Z,0
2018-12-31T04:43:41.295Z,0
2018-12-31T04:44:50.977Z,0
2018-12-31T04:46:00.421Z,0
2018-12-31T04:47:10.364Z,0
2018-12-31T04:48:20.062Z,0
2018-12-31T04:49:29.507Z,0
2018-12-31T04:50:39.463Z,0
2018-12-31T04:51:49.402Z,0
2018-12-31T04:52:59.065Z,0
2018-12-31T04:54:08.750Z,0
2018-12-31T04:55:18.457Z,0
2018-12-31T04:56:28.162Z,0
2018-12-31T04:57:37.840Z,0
2018-12-31T04:58:47.551Z,0
2018-12-31T04:59:57.253Z,0
2018-12-31T05:01:06.942Z,0
2018-12-31T05:02:16.889Z,0
2018-12-31T05:03:26.325Z,0
2018-12-31T05:04:36.294Z,0
2018-12-31T05:05:46.244Z,0
2018-12-31T05:06:56.193Z,0
2018-12-31T05:08:06.138Z,0
2018-12-31T05:09:16.096Z,0
2018-12-31T05:10:26.043Z,0
2018-12-31T05:11:35.982Z,0
2018-12-31T05:12:45.673Z,0
2018-12-31T05:13:55.631Z,0
2018-12-31T05:15:05.600Z,0
2018-12-31T05:16:15.283Z,0
2018-12-31T05:17:25.225Z,0
2018-12-31T05:18:34.918Z,0
2018-12-31T05:19:44.610Z,0
2018-12-31T05:20:54.553Z,0
2018-12-31T05:22:04.486Z,0
2018-12-31T05:23:15.201Z,0
2018-12-31T05:24:25.141Z,0
2018-12-31T05:25:35.091Z,0
2018-12-31T05:26:44.527Z,0
2018-12-31T05:27:54.235Z,0
2018-12-31T05:29:03.943Z,0
2018-12-31T05:30:13.641Z,0
2018-12-31T05:31:23.577Z,0
2018-12-31T05:32:33.542Z,0
2018-12-31T05:33:43.493Z,0
2018-12-31T05:34:53.428Z,0
2018-12-31T05:36:03.372Z,0
2018-12-31T05:37:13.063Z,0
2018-12-31T05:38:22.829Z,0
2018-12-31T05:39:32.775Z,0
2018-12-31T05:40:42.453Z,0
2018-12-31T05:41:52.141Z,0
2018-12-31T05:43:01.599Z,0
2018-12-31T05:44:11.305Z,0
2018-12-31T05:45:20.995Z,0
2018-12-31T05:46:30.943Z,0
2018-12-31T05:47:40.881Z,0
2018-12-31T05:48:50.606Z,0
2018-12-31T05:50:00.552Z,0
2018-12-31T05:51:10.506Z,0
2018-12-31T05:52:20.547Z,0
2018-12-31T05:53:30.479Z,0
2018-12-31T05:54:40.165Z,0
2018-12-31T05:55:49.622Z,0
2018-12-31T05:56:59.567Z,0
2018-12-31T05:58:09.593Z,0
2018-12-31T05:59:19.538Z,0
2018-12-31T06:00:29.237Z,0
2018-12-31T06:01:38.673Z,0
2018-12-31T06:02:48.614Z,0
2018-12-31T06:03:58.307Z,0
2018-12-31T06:05:08.247Z,0
2018-12-31T06:06:18.202Z,0
2018-12-31T06:07:28.157Z,0
2018-12-31T06:08:37.834Z,0
2018-12-31T06:09:47.516Z,0
2018-12-31T06:10:57.238Z,0
2018-12-31T06:12:06.673Z,0
2018-12-31T06:13:16.103Z,0
2018-12-31T06:14:25.789Z,0
2018-12-31T06:15:35.485Z,0
2018-12-31T06:16:45.427Z,0
2018-12-31T06:17:55.374Z,0
2018-12-31T06:19:05.322Z,0
2018-12-31T06:20:15.011Z,0
2018-12-31T06:21:24.953Z,0
2018-12-31T06:22:34.645Z,0
2018-12-31T06:23:44.329Z,0
2018-12-31T06:24:54.011Z,0
2018-12-31T06:26:03.711Z,0
2018-12-31T06:27:13.652Z,0
2018-12-31T06:28:23.663Z,0
2018-12-31T06:29:33.351Z,0
2018-12-31T06:30:43.283Z,0
2018-12-31T06:31:53.222Z,0
2018-12-31T06:33:03.150Z,0
2018-12-31T06:34:13.127Z,0
2018-12-31T06:35:22.865Z,0
2018-12-31T06:36:32.823Z,0
2018-12-31T06:37:42.763Z,0
2018-12-31T06:38:52.442Z,0
2018-12-31T06:40:02.148Z,0
2018-12-31T06:41:11.831Z,0
2018-12-31T06:42:21.762Z,0
2018-12-31T06:43:31.700Z,0
2018-12-31T06:44:41.423Z,0
2018-12-31T06:45:51.120Z,0
2018-12-31T06:47:00.547Z,0
2018-12-31T06:48:10.484Z,0
2018-12-31T06:49:20.188Z,0
2018-12-31T06:50:30.142Z,0
2018-12-31T06:51:39.827Z,0
2018-12-31T06:52:49.758Z,0
2018-12-31T06:53:58.943Z,0
2018-12-31T06:55:08.880Z,0
2018-12-31T06:56:18.823Z,0
2018-12-31T06:57:28.771Z,0
2018-12-31T06:58:38.708Z,0
2018-12-31T06:59:48.646Z,0
2018-12-31T07:00:58.336Z,0
2018-12-31T07:02:08.265Z,0
2018-12-31T07:03:18.197Z,0
2018-12-31T07:04:28.142Z,0
2018-12-31T07:05:37.869Z,0
2018-12-31T07:06:47.595Z,0
2018-12-31T07:07:57.300Z,0
2018-12-31T07:09:07.237Z,0
2018-12-31T07:10:16.680Z,0
2018-12-31T07:11:26.614Z,0
2018-12-31T07:12:36.571Z,0
2018-12-31T07:13:46.265Z,5
2018-12-31T07:14:56.203Z,5
2018-12-31T07:16:06.146Z,5
2018-12-31T07:17:16.107Z,5
2018-12-31T07:18:25.794Z,5
2018-12-31T07:19:35.736Z,5
2018-12-31T07:20:45.439Z,10
2018-12-31T07:21:54.885Z,10
2018-12-31T07:23:04.825Z,10
2018-12-31T07:24:14.507Z,10
2018-12-31T07:25:24.190Z,10
2018-12-31T07:26:34.126Z,10
2018-12-31T07:27:44.077Z,10
2018-12-31T07:28:54.013Z,15
2018-12-31T07:30:05.513Z,15
2018-12-31T07:31:15.452Z,15
2018-12-31T07:32:24.893Z,15
2018-12-31T07:33:34.593Z,15
2018-12-31T07:34:44.544Z,20
2018-12-31T07:35:54.260Z,20
2018-12-31T07:37:04.206Z,20
2018-12-31T07:38:14.184Z,20
2018-12-31T07:39:24.133Z,25
2018-12-31T07:40:34.087Z,25
2018-12-31T07:41:44.026Z,25
2018-12-31T07:42:53.725Z,25
2018-12-31T07:44:03.669Z,30
2018-12-31T07:45:13.622Z,30
2018-12-31T07:46:23.580Z,30
2018-12-31T07:47:33.274Z,30
2018-12-31T07:48:43.211Z,35
2018-12-31T07:49:52.905Z,35
2018-12-31T07:51:02.843Z,35
2018-12-31T07:52:12.456Z,40
2018-12-31T07:53:21.893Z,40
2018-12-31T07:54:31.826Z,45
2018-12-31T07:55:41.749Z,45
2018-12-31T07:56:51.688Z,45
2018-12-31T07:58:01.366Z,45
2018-12-31T07:59:11.124Z,50
2018-12-31T08:00:20.830Z,50
2018-12-31T08:01:30.762Z,50
2018-12-31T08:02:40.466Z,55
2018-12-31T08:03:50.174Z,55
2018-12-31T08:05:00.189Z,60
2018-12-31T08:06:10.145Z,60
2018-12-31T08:07:20.134Z,65
2018-12-31T08:08:29.841Z,65
2018-12-31T08:09:39.536Z,65
2018-12-31T08:10:49.224Z,70
2018-12-31T08:11:59.236Z,75
2018-12-31T08:13:08.924Z,75
2018-12-31T08:14:18.379Z,80
2018-12-31T08:15:28.348Z,85
2018-12-31T08:16:38.290Z,85
2018-12-31T08:17:48.280Z,90
2018-12-31T08:18:57.984Z,95
2018-12-31T08:20:07.914Z,100
2018-12-31T08:21:17.870Z,105
2018-12-31T08:22:27.578Z,110
2018-12-31T08:23:37.518Z,105
2018-12-31T08:24:47.500Z,105
2018-12-31T08:25:57.458Z,105
2018-12-31T08:27:07.150Z,100
2018-12-31T08:28:17.092Z,95
2018-12-31T08:29:27.110Z,95
2018-12-31T08:30:37.076Z,100
2018-12-31T08:31:47.024Z,100
2018-12-31T08:32:56.723Z,105
2018-12-31T08:34:06.777Z,100
2018-12-31T08:35:16.496Z,100
2018-12-31T08:36:26.642Z,100
2018-12-31T08:37:36.082Z,100
2018-12-31T08:38:45.768Z,100
2018-12-31T08:39:55.705Z,100
2018-12-31T08:41:05.406Z,100
2018-12-31T08:42:15.358Z,100
2018-12-31T08:43:25.048Z,100
2018-12-31T08:44:34.841Z,95
2018-12-31T08:45:44.540Z,90
2018-12-31T08:46:53.975Z,90
2018-12-31T08:48:03.943Z,90
2018-12-31T08:49:13.652Z,90
2018-12-31T08:50:23.348Z,100
2018-12-31T08:51:33.038Z,115
2018-12-31T08:52:42.480Z,135
2018-12-31T08:53:52.486Z,145
2018-12-31T08:55:02.620Z,155
2018-12-31T08:56:12.565Z,160
2018-12-31T08:57:22.512Z,160
2018-12-31T08:58:32.458Z,175
2018-12-31T08:59:42.149Z,190
2018-12-31T09:00:52.092Z,215
2018-12-31T09:02:01.777Z,235
2018-12-31T09:03:11.734Z,245
2018-12-31T09:04:21.425Z,255
2018-12-31T09:05:31.120Z,265
2018-12-31T09:06:40.817Z,280
2018-12-31T09:07:50.273Z,280
2018-12-31T09:09:00.223Z,290
2018-12-31T09:10:09.916Z,295
2018-12-31T09:11:19.846Z,315
2018-12-31T09:12:29.558Z,335
2018-12-31T09:13:39.250Z,335
2018-12-31T09:14:49.208Z,330
2018-12-31T09:15:59.152Z,335
2018-12-31T09:17:09.097Z,300
2018-12-31T09:18:19.079Z,275
2018-12-31T09:19:29.032Z,275
2018-12-31T09:20:38.985Z,265
2018-12-31T09:21:48.936Z,265
2018-12-31T09:22:58.630Z,250
2018-12-31T09:24:08.573Z,225
2018-12-31T09:25:18.295Z,205
2018-12-31T09:26:28.252Z,200
2018-12-31T09:27:38.206Z,200
2018-12-31T09:28:48.142Z,200
2018-12-31T09:29:57.600Z,195
2018-12-31T09:31:07.826Z,200
2018-12-31T09:32:17.900Z,215
2018-12-31T09:33:27.594Z,220
2018-12-31T09:34:37.525Z,210
2018-12-31T09:35:47.491Z,205
2018-12-31T09:36:57.427Z,215
2018-12-31T09:38:07.496Z,245
2018-12-31T09:39:16.938Z,260
2018-12-31T09:40:26.637Z,270
2018-12-31T09:41:36.582Z,265
2018-12-31T09:42:46.539Z,265
2018-12-31T09:43:56.490Z,275
2018-12-31T09:45:06.184Z,275
2018-12-31T09:46:16.138Z,255
2018-12-31T09:47:25.825Z,260
2018-12-31T09:48:35.273Z,265
2018-12-31T09:49:45.218Z,265
2018-12-31T09:50:55.163Z,255
2018-12-31T09:52:05.095Z,250
2018-12-31T09:53:14.881Z,250
2018-12-31T09:54:24.309Z,230
2018-12-31T09:55:34.001Z,215
2018-12-31T09:56:43.527Z,200
2018-12-31T09:57:53.482Z,200
2018-12-31T09:59:03.437Z,200
2018-12-31T10:00:13.380Z,210
2018-12-31T10:01:23.327Z,205
2018-12-31T10:02:33.024Z,195
2018-12-31T10:03:42.988Z,200
2018-12-31T10:04:52.924Z,210
2018-12-31T10:06:02.623Z,215
2018-12-31T10:07:12.329Z,220
2018-12-31T10:08:22.276Z,220
2018-12-31T10:09:31.982Z,240
2018-12-31T10:10:41.943Z,250
2018-12-31T10:11:51.385Z,260
2018-12-31T10:13:01.078Z,290
2018-12-31T10:14:10.580Z,300
2018-12-31T10:15:20.274Z,290
2018-12-31T10:16:30.507Z,290
2018-12-31T10:17:40.553Z,280
2018-12-31T10:18:50.510Z,285
2018-12-31T10:19:59.961Z,290
2018-12-31T10:21:09.919Z,330
2018-12-31T10:22:19.629Z,330
2018-12-31T10:23:29.582Z,300
2018-12-31T10:24:39.519Z,290
2018-12-31T10:25:48.712Z,255
2018-12-31T10:26:58.408Z,250
2018-12-31T10:28:07.849Z,245
2018-12-31T10:29:17.553Z,250
2018-12-31T10:30:27.246Z,265
2018-12-31T10:31:37.197Z,275
2018-12-31T10:32:47.133Z,300
2018-12-31T10:33:57.093Z,305
2018-12-31T10:35:07.060Z,310
2018-12-31T10:36:17.025Z,330
2018-12-31T10:37:26.960Z,310
2018-12-31T10:38:36.155Z,290
2018-12-31T10:39:45.603Z,300
2018-12-31T10:40:55.539Z,330
2018-12-31T10:42:05.492Z,360
2018-12-31T10:43:15.433Z,420
2018-12-31T10:44:25.371Z,505
2018-12-31T10:45:35.316Z,560
2018-12-31T10:46:46.859Z,635
2018-12-31T10:47:56.371Z,675
2018-12-31T10:49:06.409Z,630
2018-12-31T10:50:16.366Z,625
2018-12-31T10:51:26.303Z,615
2018-12-31T10:52:36.019Z,685
2018-12-31T10:53:45.972Z,845
2018-12-31T10:54:55.670Z,730
2018-12-31T10:56:05.627Z,575
2018-12-31T10:57:15.566Z,435
2018-12-31T10:58:25.598Z,330
2018-12-31T10:59:35.329Z,295
2018-12-31T11:00:45.026Z,290
2018-12-31T11:01:55.001Z,285
2018-12-31T11:03:04.957Z,305
2018-12-31T11:04:14.418Z,345
2018-12-31T11:05:24.119Z,385
2018-12-31T11:06:34.072Z,395
2018-12-31T11:07:44.011Z,420
2018-12-31T11:08:53.965Z,405
2018-12-31T11:10:03.681Z,465
2018-12-31T11:11:13.634Z,470
2018-12-31T11:12:23.359Z,455
2018-12-31T11:13:33.055Z,435
2018-12-31T11:14:43.007Z,685
2018-12-31T11:15:52.961Z,595
2018-12-31T11:17:02.918Z,640
2018-12-31T11:18:12.617Z,1030
2018-12-31T11:19:22.574Z,775
2018-12-31T11:20:32.513Z,735
2018-12-31T11:21:41.955Z,590
2018-12-31T11:22:51.913Z,630
2018-12-31T11:24:01.940Z,695
2018-12-31T11:25:11.646Z,695
2018-12-31T11:26:21.444Z,585
2018-12-31T11:27:31.395Z,605
2018-12-31T11:28:41.347Z,565
2018-12-31T11:29:51.311Z,565
2018-12-31T11:31:01.341Z,615
2018-12-31T11:32:11.295Z,610
2018-12-31T11:33:21.246Z,575
2018-12-31T11:34:31.187Z,635
2018-12-31T11:35:40.878Z,530
2018-12-31T11:36:50.835Z,470
2018-12-31T11:38:00.517Z,455
2018-12-31T11:39:10.470Z,450
2018-12-31T11:40:20.175Z,470
2018-12-31T11:41:30.121Z,455
2018-12-31T11:42:40.092Z,430
2018-12-31T11:43:49.807Z,405
2018-12-31T11:44:59.749Z,355
2018-12-31T11:46:09.693Z,320
2018-12-31T11:47:18.889Z,300
2018-12-31T11:48:28.837Z,285
2018-12-31T11:49:38.798Z,290
2018-12-31T11:50:48.736Z,295
2018-12-31T11:51:58.186Z,295
2018-12-31T11:53:07.621Z,295
2018-12-31T11:54:17.571Z,285
2018-12-31T11:55:27.546Z,280
2018-12-31T11:56:37.509Z,280
2018-12-31T11:57:47.454Z,285
2018-12-31T11:58:56.904Z,290
2018-12-31T12:00:06.859Z,295
2018-12-31T12:01:16.817Z,315
2018-12-31T12:02:32.926Z,330
2018-12-31T12:03:42.624Z,340
2018-12-31T12:04:52.564Z,345
2018-12-31T12:06:02.505Z,370
2018-12-31T12:07:12.445Z,385
2018-12-31T12:08:22.425Z,405
2018-12-31T12:09:32.401Z,415
2018-12-31T12:10:42.379Z,415
2018-12-31T12:11:52.103Z,410
2018-12-31T12:13:02.076Z,395
2018-12-31T12:14:12.069Z,380
2018-12-31T12:15:21.792Z,370
2018-12-31T12:16:31.603Z,385
2018-12-31T12:17:41.592Z,395
2018-12-31T12:18:51.637Z,395
2018-12-31T12:20:01.914Z,395
2018-12-31T12:21:12.817Z,405
2018-12-31T12:22:23.649Z,395
2018-12-31T12:23:34.310Z,375
2018-12-31T12:24:44.281Z,360
2018-12-31T12:25:54.247Z,355
2018-12-31T12:27:04.512Z,355
2018-12-31T12:28:14.883Z,345
2018-12-31T12:29:24.848Z,345
2018-12-31T12:30:34.857Z,345
2018-12-31T12:31:44.852Z,365
2018-12-31T12:32:54.829Z,425
2018-12-31T12:34:04.303Z,620
2018-12-31T12:35:14.277Z,775
2018-12-31T12:36:24.253Z,865
2018-12-31T12:37:34.251Z,820
2018-12-31T12:38:44.213Z,550
2018-12-31T12:39:53.920Z,510
2018-12-31T12:41:03.877Z,460
2018-12-31T12:42:13.620Z,420
2018-12-31T12:43:23.606Z,405
2018-12-31T12:44:33.071Z,385
2018-12-31T12:45:43.059Z,365
2018-12-31T12:46:53.043Z,345
2018-12-31T12:48:03.061Z,305
2018-12-31T12:49:13.057Z,270
2018-12-31T12:50:23.036Z,250
2018-12-31T12:51:32.747Z,245
2018-12-31T12:52:42.747Z,245
2018-12-31T12:53:53.356Z,250
2018-12-31T12:55:03.880Z,245
2018-12-31T12:56:14.125Z,250
2018-12-31T12:57:24.652Z,255
2018-12-31T12:58:36.399Z,250
2018-12-31T12:59:46.477Z,250
2018-12-31T13:00:56.193Z,240
2018-12-31T13:02:06.175Z,200
2018-12-31T13:03:16.149Z,165
2018-12-31T13:04:26.127Z,140
2018-12-31T13:05:35.855Z,135
2018-12-31T13:06:45.607Z,140
2018-12-31T13:07:56.287Z,140
2018-12-31T13:09:06.273Z,140
2018-12-31T13:10:16.021Z,140
2018-12-31T13:11:25.764Z,160
2018-12-31T13:12:35.271Z,175
2018-12-31T13:13:45.299Z,185
2018-12-31T13:14:55.042Z,195
2018-12-31T13:16:05.037Z,205
2018-12-31T13:17:14.524Z,200
2018-12-31T13:18:24.256Z,205
2018-12-31T13:19:33.724Z,215
2018-12-31T13:20:43.468Z,230
2018-12-31T13:21:53.442Z,230
2018-12-31T13:23:03.398Z,215
2018-12-31T13:24:13.134Z,195
2018-12-31T13:25:23.127Z,185
2018-12-31T13:26:33.110Z,170
2018-12-31T13:27:43.572Z,175
2018-12-31T13:28:54.429Z,180
2018-12-31T13:30:05.148Z,185
2018-12-31T13:31:15.742Z,190
2018-12-31T13:32:25.468Z,185
2018-12-31T13:33:35.472Z,170
2018-12-31T13:34:45.203Z,160
2018-12-31T13:35:55.182Z,150
2018-12-31T13:37:04.896Z,140
2018-12-31T13:38:14.886Z,130
2018-12-31T13:39:25.166Z,125
2018-12-31T13:40:36.784Z,125
2018-12-31T13:41:46.263Z,125
2018-12-31T13:42:56.252Z,125
2018-12-31T13:44:05.998Z,135
2018-12-31T13:45:15.992Z,145
2018-12-31T13:46:25.969Z,175
2018-12-31T13:47:35.979Z,200
2018-12-31T13:48:45.964Z,205
2018-12-31T13:49:55.920Z,185
2018-12-31T13:51:05.666Z,160
2018-12-31T13:52:15.409Z,130
2018-12-31T13:53:25.154Z,120
2018-12-31T13:54:35.154Z,120
2018-12-31T13:55:45.140Z,115
2018-12-31T13:56:55.111Z,110
2018-12-31T13:58:05.105Z,105
2018-12-31T13:59:15.085Z,85
2018-12-31T14:00:25.062Z,75
2018-12-31T14:01:36.420Z,70
2018-12-31T14:02:47.217Z,65
2018-12-31T14:03:57.838Z,60
2018-12-31T14:05:08.065Z,55
2018-12-31T14:06:17.788Z,55
2018-12-31T14:07:27.764Z,55
2018-12-31T14:08:37.559Z,55
2018-12-31T14:09:47.281Z,55
2018-12-31T14:10:57.009Z,50
2018-12-31T14:12:06.741Z,50
2018-12-31T14:13:16.470Z,45
2018-12-31T14:14:26.018Z,45
2018-12-31T14:15:35.504Z,45
2018-12-31T14:16:45.233Z,45
2018-12-31T14:17:55.218Z,40
2018-12-31T14:19:05.495Z,40
2018-12-31T14:20:15.474Z,40
2018-12-31T14:21:25.217Z,35
2018-12-31T14:22:35.194Z,35
2018-12-31T14:23:44.996Z,35
2018-12-31T14:24:54.976Z,35
2018-12-31T14:26:05.016Z,35
2018-12-31T14:27:15.022Z,35
2018-12-31T14:28:24.769Z,30
2018-12-31T14:29:34.740Z,30
2018-12-31T14:30:44.725Z,30
2018-12-31T14:31:54.467Z,30
2018-12-31T14:33:04.200Z,30
2018-12-31T14:34:14.034Z,30
2018-12-31T14:35:24.759Z,25
2018-12-31T14:36:35.166Z,25
2018-12-31T14:37:45.616Z,25
2018-12-31T14:38:56.208Z,25
2018-12-31T14:40:06.366Z,20
2018-12-31T14:41:16.358Z,20
2018-12-31T14:42:26.109Z,20
2018-12-31T14:43:36.154Z,20
2018-12-31T14:44:46.130Z,15
2018-12-31T14:45:56.192Z,15
2018-12-31T14:47:06.181Z,15
2018-12-31T14:48:15.916Z,15
2018-12-31T14:49:25.666Z,15
2018-12-31T14:50:35.396Z,15
2018-12-31T14:51:44.871Z,10
2018-12-31T14:52:54.603Z,10
2018-12-31T14:54:04.603Z,10
2018-12-31T14:55:14.594Z,10
2018-12-31T14:56:24.556Z,5
2018-12-31T14:57:34.297Z,5
2018-12-31T14:58:44.259Z,5
2018-12-31T14:59:54.023Z,5
2018-12-31T15:01:03.999Z,5
2018-12-31T15:02:14.012Z,5
2018-12-31T15:03:25.663Z,0
2018-12-31T15:04:35.495Z,0
2018-12-31T15:05:45.502Z,0
2018-12-31T15:06:55.478Z,0
2018-12-31T15:08:05.443Z,0
2018-12-31T15:09:15.800Z,0
2018-12-31T15:10:26.539Z,0
2018-12-31T15:11:37.100Z,0
2018-12-31T15:12:47.378Z,0
2018-12-31T15:13:57.660Z,0
2018-12-31T15:15:07.642Z,0
2018-12-31T15:16:17.367Z,0
2018-12-31T15:17:27.416Z,0
2018-12-31T15:18:36.912Z,0
2018-12-31T15:19:46.896Z,0
2018-12-31T15:20:56.624Z,0
2018-12-31T15:22:06.642Z,0
2018-12-31T15:23:16.679Z,0
2018-12-31T15:24:26.406Z,0
2018-12-31T15:25:35.891Z,0
2018-12-31T15:26:45.854Z,0
2018-12-31T15:27:55.568Z,0
2018-12-31T15:29:05.292Z,0
2018-12-31T15:30:15.266Z,0
2018-12-31T15:31:25.094Z,0
2018-12-31T15:32:35.056Z,0
2018-12-31T15:33:45.037Z,0
2018-12-31T15:34:55.028Z,0
2018-12-31T15:36:04.770Z,0
2018-12-31T15:37:14.493Z,0
2018-12-31T15:38:24.226Z,0
2018-12-31T15:39:34.228Z,0
2018-12-31T15:40:43.964Z,0
2018-12-31T15:41:53.689Z,0
2018-12-31T15:43:03.395Z,0
2018-12-31T15:44:13.134Z,0
2018-12-31T15:45:23.287Z,0
2018-12-31T15:46:34.217Z,0
2018-12-31T15:47:46.448Z,0
2018-12-31T15:48:56.785Z,0
2018-12-31T15:50:06.946Z,0
2018-12-31T15:51:16.925Z,0
2018-12-31T15:52:26.907Z,0
2018-12-31T15:53:36.916Z,0
2018-12-31T15:54:46.906Z,0
2018-12-31T15:55:58.660Z,0
2018-12-31T15:57:07.977Z,0
2018-12-31T15:58:17.685Z,0
2018-12-31T15:59:27.975Z,0
2018-12-31T16:00:37.754Z,0
2018-12-31T16:01:47.720Z,0
2018-12-31T16:02:57.448Z,0
2018-12-31T16:04:07.437Z,0
2018-12-31T16:05:17.421Z,0
2018-12-31T16:06:27.410Z,0
2018-12-31T16:07:45.309Z,0
2018-12-31T16:08:55.577Z,0
2018-12-31T16:10:05.561Z,0
2018-12-31T16:11:15.289Z,0
2018-12-31T16:12:25.081Z,0
2018-12-31T16:13:35.054Z,0
2018-12-31T16:14:45.334Z,0
2018-12-31T16:15:56.498Z,0
2018-12-31T16:17:07.170Z,0
2018-12-31T16:18:17.717Z,0
2018-12-31T16:19:28.082Z,0
2018-12-31T16:20:38.049Z,0
2018-12-31T16:21:48.024Z,0
2018-12-31T16:22:57.751Z,0
2018-12-31T16:24:07.242Z,0
2018-12-31T16:25:16.966Z,0
2018-12-31T16:26:26.965Z,0
2018-12-31T16:27:36.715Z,0
2018-12-31T16:28:46.510Z,0
2018-12-31T16:29:56.231Z,0
2018-12-31T16:31:05.954Z,0
2018-12-31T16:32:15.920Z,0
2018-12-31T16:33:26.749Z,0
2018-12-31T16:34:36.532Z,0
2018-12-31T16:35:46.605Z,0
2018-12-31T16:36:56.586Z,0
2018-12-31T16:38:06.573Z,0
2018-12-31T16:39:16.562Z,0
2018-12-31T16:40:26.540Z,0
2018-12-31T16:41:36.520Z,0
2018-12-31T16:42:46.502Z,0
2018-12-31T16:43:56.549Z,0
2018-12-31T16:45:06.311Z,0